sensor_id;sensor_type;location;lat;lon;timestamp;temperature;humidity
30893;DHT22;17595;50.884;4.346;2023-04-25T00:00:45;12.30;99.90
30893;DHT22;17595;50.884;4.346;2023-04-25T00:03:11;12.30;99.90
30893;DHT22;17595;50.884;4.346;2023-04-25T00:05:37;12.40;99.90
30893;DHT22;17595;50.884;4.346;2023-04-25T00:08:03;12.30;99.90
30893;DHT22;17595;50.884;4.346;2023-04-25T00:10:29;12.30;99.90
30893;DHT22;17595;50.884;4.346;2023-04-25T00:12:55;12.40;99.90
30893;DHT22;17595;50.884;4.346;2023-04-25T00:15:21;12.40;99.90
30893;DHT22;17595;50.884;4.346;2023-04-25T00:17:47;12.40;99.90
30893;DHT22;17595;50.884;4.346;2023-04-25T00:20:13;12.50;99.90
30893;DHT22;17595;50.884;4.346;2023-04-25T00:22:39;12.50;99.90
30893;DHT22;17595;50.884;4.346;2023-04-25T00:25:05;12.50;99.90
30893;DHT22;17595;50.884;4.346;2023-04-25T00:27:31;12.50;99.90
30893;DHT22;17595;50.884;4.346;2023-04-25T00:29:57;12.40;99.90
30893;DHT22;17595;50.884;4.346;2023-04-25T00:32:23;12.20;99.90
30893;DHT22;17595;50.884;4.346;2023-04-25T00:34:49;12.20;99.90
30893;DHT22;17595;50.884;4.346;2023-04-25T00:37:15;12.10;99.90
30893;DHT22;17595;50.884;4.346;2023-04-25T00:39:41;12.00;99.90
30893;DHT22;17595;50.884;4.346;2023-04-25T00:42:07;12.10;99.90
30893;DHT22;17595;50.884;4.346;2023-04-25T00:44:33;12.20;99.90
30893;DHT22;17595;50.884;4.346;2023-04-25T00:47:01;12.30;99.90
30893;DHT22;17595;50.884;4.346;2023-04-25T00:49:27;12.30;99.90
30893;DHT22;17595;50.884;4.346;2023-04-25T00:51:53;12.40;99.90
30893;DHT22;17595;50.884;4.346;2023-04-25T00:54:18;12.20;99.90
30893;DHT22;17595;50.884;4.346;2023-04-25T00:56:45;11.90;99.90
30893;DHT22;17595;50.884;4.346;2023-04-25T00:59:10;11.70;99.90
30893;DHT22;17595;50.884;4.346;2023-04-25T01:01:36;11.60;99.90
30893;DHT22;17595;50.884;4.346;2023-04-25T01:04:04;11.60;99.90
30893;DHT22;17595;50.884;4.346;2023-04-25T01:06:30;11.70;99.90
30893;DHT22;17595;50.884;4.346;2023-04-25T01:08:59;12.00;99.90
30893;DHT22;17595;50.884;4.346;2023-04-25T01:11:24;11.90;99.90
30893;DHT22;17595;50.884;4.346;2023-04-25T01:13:50;11.60;99.90
30893;DHT22;17595;50.884;4.346;2023-04-25T01:16:16;11.50;99.90
30893;DHT22;17595;50.884;4.346;2023-04-25T01:18:42;11.50;99.90
30893;DHT22;17595;50.884;4.346;2023-04-25T01:21:10;11.10;99.90
30893;DHT22;17595;50.884;4.346;2023-04-25T01:23:37;11.10;99.90
30893;DHT22;17595;50.884;4.346;2023-04-25T01:26:03;11.20;99.90
30893;DHT22;17595;50.884;4.346;2023-04-25T01:28:29;11.30;99.90
30893;DHT22;17595;50.884;4.346;2023-04-25T01:30:56;11.10;99.90
30893;DHT22;17595;50.884;4.346;2023-04-25T01:33:22;11.00;99.90
30893;DHT22;17595;50.884;4.346;2023-04-25T01:35:48;10.90;99.90
30893;DHT22;17595;50.884;4.346;2023-04-25T01:38:14;11.00;99.90
30893;DHT22;17595;50.884;4.346;2023-04-25T01:40:40;11.00;99.90
30893;DHT22;17595;50.884;4.346;2023-04-25T01:43:07;10.90;99.90
30893;DHT22;17595;50.884;4.346;2023-04-25T01:45:37;10.80;99.90
30893;DHT22;17595;50.884;4.346;2023-04-25T01:48:05;10.70;99.90
30893;DHT22;17595;50.884;4.346;2023-04-25T01:50:30;10.70;99.90
30893;DHT22;17595;50.884;4.346;2023-04-25T01:52:56;10.80;99.90
30893;DHT22;17595;50.884;4.346;2023-04-25T01:55:22;11.00;99.90
30893;DHT22;17595;50.884;4.346;2023-04-25T01:57:48;11.10;99.90
30893;DHT22;17595;50.884;4.346;2023-04-25T02:00:13;11.20;99.90
30893;DHT22;17595;50.884;4.346;2023-04-25T02:02:39;11.30;99.90
30893;DHT22;17595;50.884;4.346;2023-04-25T02:05:05;11.30;99.90
30893;DHT22;17595;50.884;4.346;2023-04-25T02:07:32;11.30;99.90
30893;DHT22;17595;50.884;4.346;2023-04-25T02:09:57;11.30;99.90
30893;DHT22;17595;50.884;4.346;2023-04-25T02:12:23;11.10;99.90
30893;DHT22;17595;50.884;4.346;2023-04-25T02:14:51;11.00;99.90
30893;DHT22;17595;50.884;4.346;2023-04-25T02:17:17;11.10;99.90
30893;DHT22;17595;50.884;4.346;2023-04-25T02:19:43;11.00;99.90
30893;DHT22;17595;50.884;4.346;2023-04-25T02:22:09;11.20;99.90
30893;DHT22;17595;50.884;4.346;2023-04-25T02:24:36;11.20;99.90
30893;DHT22;17595;50.884;4.346;2023-04-25T02:27:01;11.30;99.90
30893;DHT22;17595;50.884;4.346;2023-04-25T02:29:28;11.30;99.90
30893;DHT22;17595;50.884;4.346;2023-04-25T02:31:54;11.30;99.90
30893;DHT22;17595;50.884;4.346;2023-04-25T02:34:20;11.40;99.90
30893;DHT22;17595;50.884;4.346;2023-04-25T02:36:45;11.50;99.90
30893;DHT22;17595;50.884;4.346;2023-04-25T02:39:11;11.70;99.90
30893;DHT22;17595;50.884;4.346;2023-04-25T02:41:37;11.70;99.90
30893;DHT22;17595;50.884;4.346;2023-04-25T02:44:03;11.60;99.90
30893;DHT22;17595;50.884;4.346;2023-04-25T02:46:28;11.70;99.90
30893;DHT22;17595;50.884;4.346;2023-04-25T02:48:54;11.50;99.90
30893;DHT22;17595;50.884;4.346;2023-04-25T02:51:20;11.50;99.90
30893;DHT22;17595;50.884;4.346;2023-04-25T02:53:45;11.50;99.90
30893;DHT22;17595;50.884;4.346;2023-04-25T02:56:11;11.50;99.90
30893;DHT22;17595;50.884;4.346;2023-04-25T02:58:36;11.50;99.90
30893;DHT22;17595;50.884;4.346;2023-04-25T03:01:02;11.60;99.90
30893;DHT22;17595;50.884;4.346;2023-04-25T03:03:28;11.50;99.90
30893;DHT22;17595;50.884;4.346;2023-04-25T03:05:53;11.40;99.90
30893;DHT22;17595;50.884;4.346;2023-04-25T03:08:19;11.40;99.90
30893;DHT22;17595;50.884;4.346;2023-04-25T03:10:45;10.90;99.90
30893;DHT22;17595;50.884;4.346;2023-04-25T03:13:11;10.80;99.90
30893;DHT22;17595;50.884;4.346;2023-04-25T03:15:37;10.70;99.90
30893;DHT22;17595;50.884;4.346;2023-04-25T03:18:03;10.50;99.90
30893;DHT22;17595;50.884;4.346;2023-04-25T03:20:29;10.40;99.90
30893;DHT22;17595;50.884;4.346;2023-04-25T03:22:55;10.40;99.90
30893;DHT22;17595;50.884;4.346;2023-04-25T03:25:21;10.40;99.90
30893;DHT22;17595;50.884;4.346;2023-04-25T03:27:47;10.50;99.90
30893;DHT22;17595;50.884;4.346;2023-04-25T03:30:13;10.60;99.90
30893;DHT22;17595;50.884;4.346;2023-04-25T03:32:38;10.60;99.90
30893;DHT22;17595;50.884;4.346;2023-04-25T03:35:04;10.50;99.90
30893;DHT22;17595;50.884;4.346;2023-04-25T03:37:30;10.30;99.90
30893;DHT22;17595;50.884;4.346;2023-04-25T03:39:56;10.20;99.90
30893;DHT22;17595;50.884;4.346;2023-04-25T03:42:22;10.20;99.90
30893;DHT22;17595;50.884;4.346;2023-04-25T03:44:49;10.30;99.90
30893;DHT22;17595;50.884;4.346;2023-04-25T03:47:15;10.40;99.90
30893;DHT22;17595;50.884;4.346;2023-04-25T03:49:41;10.50;99.90
30893;DHT22;17595;50.884;4.346;2023-04-25T03:52:06;10.60;99.90
30893;DHT22;17595;50.884;4.346;2023-04-25T03:54:32;10.70;99.90
30893;DHT22;17595;50.884;4.346;2023-04-25T03:56:58;10.70;99.90
30893;DHT22;17595;50.884;4.346;2023-04-25T03:59:23;10.60;99.90
30893;DHT22;17595;50.884;4.346;2023-04-25T04:01:50;10.60;99.90
30893;DHT22;17595;50.884;4.346;2023-04-25T04:04:16;10.80;99.90
30893;DHT22;17595;50.884;4.346;2023-04-25T04:06:41;10.90;99.90
30893;DHT22;17595;50.884;4.346;2023-04-25T04:09:07;11.00;99.90
30893;DHT22;17595;50.884;4.346;2023-04-25T04:11:37;11.10;99.90
30893;DHT22;17595;50.884;4.346;2023-04-25T04:14:04;11.10;99.90
30893;DHT22;17595;50.884;4.346;2023-04-25T04:16:31;11.20;99.90
30893;DHT22;17595;50.884;4.346;2023-04-25T04:18:56;11.30;99.90
30893;DHT22;17595;50.884;4.346;2023-04-25T04:21:22;11.40;99.90
30893;DHT22;17595;50.884;4.346;2023-04-25T04:23:47;11.50;99.90
30893;DHT22;17595;50.884;4.346;2023-04-25T04:26:14;11.50;99.90
30893;DHT22;17595;50.884;4.346;2023-04-25T04:28:42;11.50;99.90
30893;DHT22;17595;50.884;4.346;2023-04-25T04:31:09;11.50;99.90
30893;DHT22;17595;50.884;4.346;2023-04-25T04:33:35;11.50;99.90
30893;DHT22;17595;50.884;4.346;2023-04-25T04:36:02;11.30;99.90
30893;DHT22;17595;50.884;4.346;2023-04-25T04:38:28;11.20;99.90
30893;DHT22;17595;50.884;4.346;2023-04-25T04:40:54;11.10;99.90
30893;DHT22;17595;50.884;4.346;2023-04-25T04:43:21;11.00;99.90
30893;DHT22;17595;50.884;4.346;2023-04-25T04:45:48;10.70;99.90
30893;DHT22;17595;50.884;4.346;2023-04-25T04:48:15;10.50;99.90
30893;DHT22;17595;50.884;4.346;2023-04-25T04:50:43;10.60;99.90
30893;DHT22;17595;50.884;4.346;2023-04-25T04:53:11;10.40;99.90
30893;DHT22;17595;50.884;4.346;2023-04-25T04:55:37;10.10;99.90
30893;DHT22;17595;50.884;4.346;2023-04-25T04:58:02;9.90;99.90
30893;DHT22;17595;50.884;4.346;2023-04-25T05:00:28;9.90;99.90
30893;DHT22;17595;50.884;4.346;2023-04-25T05:02:55;9.80;99.90
30893;DHT22;17595;50.884;4.346;2023-04-25T05:05:21;9.80;99.90
30893;DHT22;17595;50.884;4.346;2023-04-25T05:07:47;9.90;99.90
30893;DHT22;17595;50.884;4.346;2023-04-25T05:10:12;10.10;99.90
30893;DHT22;17595;50.884;4.346;2023-04-25T05:12:38;10.10;99.90
30893;DHT22;17595;50.884;4.346;2023-04-25T05:15:04;10.00;99.90
30893;DHT22;17595;50.884;4.346;2023-04-25T05:17:30;10.10;99.90
30893;DHT22;17595;50.884;4.346;2023-04-25T05:19:55;10.30;99.90
30893;DHT22;17595;50.884;4.346;2023-04-25T05:22:21;10.50;99.90
30893;DHT22;17595;50.884;4.346;2023-04-25T05:24:46;10.70;99.90
30893;DHT22;17595;50.884;4.346;2023-04-25T05:27:15;10.80;99.90
30893;DHT22;17595;50.884;4.346;2023-04-25T05:29:41;11.00;99.90
30893;DHT22;17595;50.884;4.346;2023-04-25T05:32:07;11.20;99.90
30893;DHT22;17595;50.884;4.346;2023-04-25T05:34:33;11.20;99.90
30893;DHT22;17595;50.884;4.346;2023-04-25T05:36:59;11.10;99.90
30893;DHT22;17595;50.884;4.346;2023-04-25T05:39:25;11.10;99.90
30893;DHT22;17595;50.884;4.346;2023-04-25T05:41:50;11.20;99.90
30893;DHT22;17595;50.884;4.346;2023-04-25T05:44:16;11.30;99.90
30893;DHT22;17595;50.884;4.346;2023-04-25T05:46:42;11.20;99.90
30893;DHT22;17595;50.884;4.346;2023-04-25T05:49:07;11.20;99.90
30893;DHT22;17595;50.884;4.346;2023-04-25T05:51:33;11.20;99.90
30893;DHT22;17595;50.884;4.346;2023-04-25T05:53:59;11.20;99.90
30893;DHT22;17595;50.884;4.346;2023-04-25T05:56:24;11.20;99.90
30893;DHT22;17595;50.884;4.346;2023-04-25T05:58:50;11.20;99.90
30893;DHT22;17595;50.884;4.346;2023-04-25T06:01:15;11.10;99.90
30893;DHT22;17595;50.884;4.346;2023-04-25T06:03:41;10.90;99.90
30893;DHT22;17595;50.884;4.346;2023-04-25T06:06:08;10.90;99.90
30893;DHT22;17595;50.884;4.346;2023-04-25T06:08:34;10.90;99.90
30893;DHT22;17595;50.884;4.346;2023-04-25T06:11:00;10.90;99.90
30893;DHT22;17595;50.884;4.346;2023-04-25T06:13:26;10.90;99.90
30893;DHT22;17595;50.884;4.346;2023-04-25T06:15:51;11.30;99.90
30893;DHT22;17595;50.884;4.346;2023-04-25T06:18:17;11.30;99.90
30893;DHT22;17595;50.884;4.346;2023-04-25T06:20:42;11.30;99.90
30893;DHT22;17595;50.884;4.346;2023-04-25T06:23:08;11.00;99.90
30893;DHT22;17595;50.884;4.346;2023-04-25T06:25:34;10.90;99.90
30893;DHT22;17595;50.884;4.346;2023-04-25T06:27:59;10.50;99.90
30893;DHT22;17595;50.884;4.346;2023-04-25T06:30:25;10.40;99.90
30893;DHT22;17595;50.884;4.346;2023-04-25T06:32:51;10.30;99.90
30893;DHT22;17595;50.884;4.346;2023-04-25T06:35:18;10.40;99.90
30893;DHT22;17595;50.884;4.346;2023-04-25T06:37:44;10.40;99.90
30893;DHT22;17595;50.884;4.346;2023-04-25T06:40:10;10.50;99.90
30893;DHT22;17595;50.884;4.346;2023-04-25T06:42:36;10.60;99.90
30893;DHT22;17595;50.884;4.346;2023-04-25T06:45:02;10.60;99.90
30893;DHT22;17595;50.884;4.346;2023-04-25T06:47:28;10.50;99.90
30893;DHT22;17595;50.884;4.346;2023-04-25T06:49:55;10.20;99.90
30893;DHT22;17595;50.884;4.346;2023-04-25T06:52:20;10.20;99.90
30893;DHT22;17595;50.884;4.346;2023-04-25T06:54:46;10.20;99.90
30893;DHT22;17595;50.884;4.346;2023-04-25T06:57:12;10.10;99.90
30893;DHT22;17595;50.884;4.346;2023-04-25T06:59:38;10.10;99.90
30893;DHT22;17595;50.884;4.346;2023-04-25T07:02:04;10.20;99.90
30893;DHT22;17595;50.884;4.346;2023-04-25T07:04:29;10.30;99.90
30893;DHT22;17595;50.884;4.346;2023-04-25T07:06:56;10.40;99.90
30893;DHT22;17595;50.884;4.346;2023-04-25T07:09:22;10.70;99.90
30893;DHT22;17595;50.884;4.346;2023-04-25T07:11:47;10.90;99.90
30893;DHT22;17595;50.884;4.346;2023-04-25T07:14:13;11.10;99.90
30893;DHT22;17595;50.884;4.346;2023-04-25T07:16:39;11.40;99.90
30893;DHT22;17595;50.884;4.346;2023-04-25T07:19:05;11.40;99.90
30893;DHT22;17595;50.884;4.346;2023-04-25T07:21:31;11.60;99.90
30893;DHT22;17595;50.884;4.346;2023-04-25T07:23:57;11.70;99.90
30893;DHT22;17595;50.884;4.346;2023-04-25T07:26:22;11.70;99.90
30893;DHT22;17595;50.884;4.346;2023-04-25T07:28:48;11.50;99.90
30893;DHT22;17595;50.884;4.346;2023-04-25T07:31:17;11.10;99.90
30893;DHT22;17595;50.884;4.346;2023-04-25T07:33:44;10.70;99.90
30893;DHT22;17595;50.884;4.346;2023-04-25T07:36:11;10.60;99.90
30893;DHT22;17595;50.884;4.346;2023-04-25T07:38:37;10.40;99.90
30893;DHT22;17595;50.884;4.346;2023-04-25T07:41:03;10.50;99.90
30893;DHT22;17595;50.884;4.346;2023-04-25T07:43:29;10.50;99.90
30893;DHT22;17595;50.884;4.346;2023-04-25T07:46:16;10.80;99.90
30893;DHT22;17595;50.884;4.346;2023-04-25T07:48:45;10.70;99.90
30893;DHT22;17595;50.884;4.346;2023-04-25T07:51:11;10.80;99.90
30893;DHT22;17595;50.884;4.346;2023-04-25T07:53:36;10.60;99.90
30893;DHT22;17595;50.884;4.346;2023-04-25T07:56:03;10.50;99.90
30893;DHT22;17595;50.884;4.346;2023-04-25T07:58:28;10.80;99.90
30893;DHT22;17595;50.884;4.346;2023-04-25T08:00:54;11.10;99.90
30893;DHT22;17595;50.884;4.346;2023-04-25T08:03:20;11.40;99.90
30893;DHT22;17595;50.884;4.346;2023-04-25T08:05:46;11.70;99.90
30893;DHT22;17595;50.884;4.346;2023-04-25T08:08:12;11.80;99.90
30893;DHT22;17595;50.884;4.346;2023-04-25T08:10:37;11.50;99.90
30893;DHT22;17595;50.884;4.346;2023-04-25T08:13:03;11.60;99.90
30893;DHT22;17595;50.884;4.346;2023-04-25T08:15:29;11.90;99.90
30893;DHT22;17595;50.884;4.346;2023-04-25T08:17:55;12.30;99.90
30893;DHT22;17595;50.884;4.346;2023-04-25T08:20:20;12.20;99.90
30893;DHT22;17595;50.884;4.346;2023-04-25T08:22:46;11.90;99.90
30893;DHT22;17595;50.884;4.346;2023-04-25T08:25:14;11.50;99.90
30893;DHT22;17595;50.884;4.346;2023-04-25T08:27:39;11.50;99.90
30893;DHT22;17595;50.884;4.346;2023-04-25T08:30:06;11.40;99.90
30893;DHT22;17595;50.884;4.346;2023-04-25T08:32:33;11.10;99.90
30893;DHT22;17595;50.884;4.346;2023-04-25T08:34:59;11.10;99.90
30893;DHT22;17595;50.884;4.346;2023-04-25T08:37:25;11.40;99.90
30893;DHT22;17595;50.884;4.346;2023-04-25T08:39:51;11.90;99.90
30893;DHT22;17595;50.884;4.346;2023-04-25T08:42:21;11.80;99.90
30893;DHT22;17595;50.884;4.346;2023-04-25T08:44:49;11.60;99.90
30893;DHT22;17595;50.884;4.346;2023-04-25T08:47:15;11.30;99.90
30893;DHT22;17595;50.884;4.346;2023-04-25T08:49:45;11.10;99.90
30893;DHT22;17595;50.884;4.346;2023-04-25T08:52:13;11.10;99.90
30893;DHT22;17595;50.884;4.346;2023-04-25T08:54:43;11.10;99.90
30893;DHT22;17595;50.884;4.346;2023-04-25T08:57:11;11.10;99.90
30893;DHT22;17595;50.884;4.346;2023-04-25T08:59:37;11.30;99.90
30893;DHT22;17595;50.884;4.346;2023-04-25T09:02:04;11.80;99.90
30893;DHT22;17595;50.884;4.346;2023-04-25T09:04:33;11.70;99.90
30893;DHT22;17595;50.884;4.346;2023-04-25T09:06:59;12.00;99.90
30893;DHT22;17595;50.884;4.346;2023-04-25T09:09:24;11.80;99.90
30893;DHT22;17595;50.884;4.346;2023-04-25T09:11:50;11.50;99.90
30893;DHT22;17595;50.884;4.346;2023-04-25T09:14:18;11.20;99.90
30893;DHT22;17595;50.884;4.346;2023-04-25T09:19:32;11.10;99.90
30893;DHT22;17595;50.884;4.346;2023-04-25T09:22:00;11.50;99.90
30893;DHT22;17595;50.884;4.346;2023-04-25T09:24:37;11.80;99.90
30893;DHT22;17595;50.884;4.346;2023-04-25T09:27:04;11.30;99.90
30893;DHT22;17595;50.884;4.346;2023-04-25T09:29:35;11.00;99.90
30893;DHT22;17595;50.884;4.346;2023-04-25T09:34:48;10.70;99.90
30893;DHT22;17595;50.884;4.346;2023-04-25T09:37:23;10.80;99.90
30893;DHT22;17595;50.884;4.346;2023-04-25T09:39:53;11.00;99.90
30893;DHT22;17595;50.884;4.346;2023-04-25T09:42:22;11.20;99.90
30893;DHT22;17595;50.884;4.346;2023-04-25T09:44:52;11.00;99.90
30893;DHT22;17595;50.884;4.346;2023-04-25T09:47:17;11.00;99.90
30893;DHT22;17595;50.884;4.346;2023-04-25T09:49:44;11.10;99.90
30893;DHT22;17595;50.884;4.346;2023-04-25T09:52:15;11.20;99.90
30893;DHT22;17595;50.884;4.346;2023-04-25T09:54:41;11.40;99.90
30893;DHT22;17595;50.884;4.346;2023-04-25T09:57:15;11.60;99.90
30893;DHT22;17595;50.884;4.346;2023-04-25T09:59:46;11.90;99.90
30893;DHT22;17595;50.884;4.346;2023-04-25T10:02:14;11.90;99.90
30893;DHT22;17595;50.884;4.346;2023-04-25T10:04:41;11.60;99.90
30893;DHT22;17595;50.884;4.346;2023-04-25T10:07:07;11.30;99.90
30893;DHT22;17595;50.884;4.346;2023-04-25T10:09:36;11.20;99.90
30893;DHT22;17595;50.884;4.346;2023-04-25T10:12:03;11.10;99.90
30893;DHT22;17595;50.884;4.346;2023-04-25T10:14:32;11.20;99.90
30893;DHT22;17595;50.884;4.346;2023-04-25T10:16:58;11.10;99.90
30893;DHT22;17595;50.884;4.346;2023-04-25T10:19:25;11.10;99.90
30893;DHT22;17595;50.884;4.346;2023-04-25T10:24:36;11.30;99.90
30893;DHT22;17595;50.884;4.346;2023-04-25T10:27:03;11.40;99.90
30893;DHT22;17595;50.884;4.346;2023-04-25T10:29:29;11.70;99.90
30893;DHT22;17595;50.884;4.346;2023-04-25T10:31:55;11.60;99.90
30893;DHT22;17595;50.884;4.346;2023-04-25T10:34:39;12.00;99.90
30893;DHT22;17595;50.884;4.346;2023-04-25T10:37:10;12.40;99.90
30893;DHT22;17595;50.884;4.346;2023-04-25T10:39:41;12.90;99.90
30893;DHT22;17595;50.884;4.346;2023-04-25T10:42:07;12.70;99.90
30893;DHT22;17595;50.884;4.346;2023-04-25T10:44:37;12.70;99.90
30893;DHT22;17595;50.884;4.346;2023-04-25T10:47:03;12.80;99.90
30893;DHT22;17595;50.884;4.346;2023-04-25T10:49:51;12.80;99.90
30893;DHT22;17595;50.884;4.346;2023-04-25T10:52:27;12.30;99.90
30893;DHT22;17595;50.884;4.346;2023-04-25T10:54:56;12.20;99.90
30893;DHT22;17595;50.884;4.346;2023-04-25T11:00:06;11.90;99.90
30893;DHT22;17595;50.884;4.346;2023-04-25T11:03:02;11.60;99.90
30893;DHT22;17595;50.884;4.346;2023-04-25T11:05:36;11.50;99.90
30893;DHT22;17595;50.884;4.346;2023-04-25T11:08:02;11.20;99.90
30893;DHT22;17595;50.884;4.346;2023-04-25T11:10:34;11.10;99.90
30893;DHT22;17595;50.884;4.346;2023-04-25T11:13:01;11.30;99.90
30893;DHT22;17595;50.884;4.346;2023-04-25T11:15:27;11.30;99.90
30893;DHT22;17595;50.884;4.346;2023-04-25T11:17:53;11.50;99.90
30893;DHT22;17595;50.884;4.346;2023-04-25T11:20:19;11.50;99.90
30893;DHT22;17595;50.884;4.346;2023-04-25T11:22:46;11.80;99.90
30893;DHT22;17595;50.884;4.346;2023-04-25T11:25:13;11.90;99.90
30893;DHT22;17595;50.884;4.346;2023-04-25T11:27:57;11.80;99.90
30893;DHT22;17595;50.884;4.346;2023-04-25T11:30:24;12.00;99.90
30893;DHT22;17595;50.884;4.346;2023-04-25T11:32:50;12.30;99.90
30893;DHT22;17595;50.884;4.346;2023-04-25T11:35:18;12.20;99.90
30893;DHT22;17595;50.884;4.346;2023-04-25T11:37:43;12.20;99.90
30893;DHT22;17595;50.884;4.346;2023-04-25T11:40:10;12.20;99.90
30893;DHT22;17595;50.884;4.346;2023-04-25T11:42:44;12.50;99.90
30893;DHT22;17595;50.884;4.346;2023-04-25T11:45:10;12.40;99.90
30893;DHT22;17595;50.884;4.346;2023-04-25T11:47:36;12.10;99.90
30893;DHT22;17595;50.884;4.346;2023-04-25T11:50:03;12.00;99.90
30893;DHT22;17595;50.884;4.346;2023-04-25T11:52:56;11.80;99.90
30893;DHT22;17595;50.884;4.346;2023-04-25T11:55:21;11.80;99.90
30893;DHT22;17595;50.884;4.346;2023-04-25T11:57:48;12.00;99.90
30893;DHT22;17595;50.884;4.346;2023-04-25T12:00:20;12.00;99.90
30893;DHT22;17595;50.884;4.346;2023-04-25T12:02:47;12.00;99.90
30893;DHT22;17595;50.884;4.346;2023-04-25T12:05:14;12.10;99.90
30893;DHT22;17595;50.884;4.346;2023-04-25T12:07:43;12.30;99.90
30893;DHT22;17595;50.884;4.346;2023-04-25T12:10:11;12.40;99.90
30893;DHT22;17595;50.884;4.346;2023-04-25T12:12:38;12.70;99.90
30893;DHT22;17595;50.884;4.346;2023-04-25T12:15:25;13.00;99.90
30893;DHT22;17595;50.884;4.346;2023-04-25T12:17:53;13.30;99.90
30893;DHT22;17595;50.884;4.346;2023-04-25T12:20:23;13.10;99.90
30893;DHT22;17595;50.884;4.346;2023-04-25T12:22:50;12.80;99.90
30893;DHT22;17595;50.884;4.346;2023-04-25T12:25:41;12.40;99.90
30893;DHT22;17595;50.884;4.346;2023-04-25T12:30:58;12.00;99.90
30893;DHT22;17595;50.884;4.346;2023-04-25T12:33:25;11.70;99.90
30893;DHT22;17595;50.884;4.346;2023-04-25T12:35:52;11.70;99.90
30893;DHT22;17595;50.884;4.346;2023-04-25T12:38:27;12.00;99.90
30893;DHT22;17595;50.884;4.346;2023-04-25T12:40:55;12.10;99.90
30893;DHT22;17595;50.884;4.346;2023-04-25T12:43:21;12.40;99.90
30893;DHT22;17595;50.884;4.346;2023-04-25T12:45:53;12.60;99.90
30893;DHT22;17595;50.884;4.346;2023-04-25T12:48:20;12.50;99.90
30893;DHT22;17595;50.884;4.346;2023-04-25T12:50:46;12.40;99.90
30893;DHT22;17595;50.884;4.346;2023-04-25T12:53:24;12.30;99.90
30893;DHT22;17595;50.884;4.346;2023-04-25T12:55:50;12.40;99.90
30893;DHT22;17595;50.884;4.346;2023-04-25T12:58:17;12.70;99.90
30893;DHT22;17595;50.884;4.346;2023-04-25T13:00:43;12.70;99.90
30893;DHT22;17595;50.884;4.346;2023-04-25T13:03:09;12.90;99.90
30893;DHT22;17595;50.884;4.346;2023-04-25T13:05:36;12.60;99.90
30893;DHT22;17595;50.884;4.346;2023-04-25T13:08:02;12.60;99.90
30893;DHT22;17595;50.884;4.346;2023-04-25T13:10:28;12.60;99.90
30893;DHT22;17595;50.884;4.346;2023-04-25T13:12:53;12.70;99.90
30893;DHT22;17595;50.884;4.346;2023-04-25T13:15:20;12.70;99.90
30893;DHT22;17595;50.884;4.346;2023-04-25T13:17:45;12.70;99.90
30893;DHT22;17595;50.884;4.346;2023-04-25T13:20:12;12.80;99.90
30893;DHT22;17595;50.884;4.346;2023-04-25T13:22:39;12.50;99.90
30893;DHT22;17595;50.884;4.346;2023-04-25T13:25:06;12.40;99.90
30893;DHT22;17595;50.884;4.346;2023-04-25T13:27:33;12.40;99.90
30893;DHT22;17595;50.884;4.346;2023-04-25T13:30:00;12.10;99.90
30893;DHT22;17595;50.884;4.346;2023-04-25T13:32:27;12.20;99.90
30893;DHT22;17595;50.884;4.346;2023-04-25T13:34:53;12.40;99.90
30893;DHT22;17595;50.884;4.346;2023-04-25T13:37:18;12.50;99.90
30893;DHT22;17595;50.884;4.346;2023-04-25T13:39:44;12.30;99.90
30893;DHT22;17595;50.884;4.346;2023-04-25T13:42:10;12.20;99.90
30893;DHT22;17595;50.884;4.346;2023-04-25T13:44:36;12.40;99.90
30893;DHT22;17595;50.884;4.346;2023-04-25T13:47:02;12.70;99.90
30893;DHT22;17595;50.884;4.346;2023-04-25T13:49:28;13.00;99.90
30893;DHT22;17595;50.884;4.346;2023-04-25T13:51:53;12.90;99.90
30893;DHT22;17595;50.884;4.346;2023-04-25T13:54:19;12.90;99.90
30893;DHT22;17595;50.884;4.346;2023-04-25T13:56:45;12.60;99.90
30893;DHT22;17595;50.884;4.346;2023-04-25T13:59:10;12.20;99.90
30893;DHT22;17595;50.884;4.346;2023-04-25T14:01:36;11.90;99.90
30893;DHT22;17595;50.884;4.346;2023-04-25T14:04:02;12.00;99.90
30893;DHT22;17595;50.884;4.346;2023-04-25T14:06:32;12.20;99.90
30893;DHT22;17595;50.884;4.346;2023-04-25T14:08:58;12.10;99.90
30893;DHT22;17595;50.884;4.346;2023-04-25T14:11:26;12.20;99.90
30893;DHT22;17595;50.884;4.346;2023-04-25T14:13:52;12.50;99.90
30893;DHT22;17595;50.884;4.346;2023-04-25T14:16:17;12.50;99.90
30893;DHT22;17595;50.884;4.346;2023-04-25T14:18:43;12.60;99.90
30893;DHT22;17595;50.884;4.346;2023-04-25T14:21:09;12.70;99.90
30893;DHT22;17595;50.884;4.346;2023-04-25T14:23:35;12.60;99.90
30893;DHT22;17595;50.884;4.346;2023-04-25T14:26:01;12.20;99.90
30893;DHT22;17595;50.884;4.346;2023-04-25T14:28:27;12.20;99.90
30893;DHT22;17595;50.884;4.346;2023-04-25T14:30:52;12.30;99.90
30893;DHT22;17595;50.884;4.346;2023-04-25T14:33:18;12.30;99.90
30893;DHT22;17595;50.884;4.346;2023-04-25T14:35:44;12.20;99.90
30893;DHT22;17595;50.884;4.346;2023-04-25T14:38:09;12.20;99.90
30893;DHT22;17595;50.884;4.346;2023-04-25T14:40:35;12.40;99.90
30893;DHT22;17595;50.884;4.346;2023-04-25T14:43:01;12.60;99.90
30893;DHT22;17595;50.884;4.346;2023-04-25T14:45:26;12.20;99.90
30893;DHT22;17595;50.884;4.346;2023-04-25T14:47:52;12.10;99.90
30893;DHT22;17595;50.884;4.346;2023-04-25T14:50:17;12.00;99.90
30893;DHT22;17595;50.884;4.346;2023-04-25T14:52:43;11.90;99.90
30893;DHT22;17595;50.884;4.346;2023-04-25T14:55:10;12.00;99.90
30893;DHT22;17595;50.884;4.346;2023-04-25T14:57:36;12.00;99.90
30893;DHT22;17595;50.884;4.346;2023-04-25T15:00:03;12.30;99.90
30893;DHT22;17595;50.884;4.346;2023-04-25T15:02:32;12.40;99.90
30893;DHT22;17595;50.884;4.346;2023-04-25T15:04:58;12.30;99.90
30893;DHT22;17595;50.884;4.346;2023-04-25T15:07:23;12.50;99.90
30893;DHT22;17595;50.884;4.346;2023-04-25T15:09:50;12.50;99.90
30893;DHT22;17595;50.884;4.346;2023-04-25T15:12:15;12.70;99.90
30893;DHT22;17595;50.884;4.346;2023-04-25T15:14:41;12.50;99.90
30893;DHT22;17595;50.884;4.346;2023-04-25T15:17:06;12.20;99.90
30893;DHT22;17595;50.884;4.346;2023-04-25T15:19:32;12.00;99.90
30893;DHT22;17595;50.884;4.346;2023-04-25T15:21:58;12.00;99.90
30893;DHT22;17595;50.884;4.346;2023-04-25T15:24:26;12.10;99.90
30893;DHT22;17595;50.884;4.346;2023-04-25T15:26:52;11.90;99.90
30893;DHT22;17595;50.884;4.346;2023-04-25T15:29:18;11.80;99.90
30893;DHT22;17595;50.884;4.346;2023-04-25T15:31:43;11.80;99.90
30893;DHT22;17595;50.884;4.346;2023-04-25T15:34:09;12.00;99.90
30893;DHT22;17595;50.884;4.346;2023-04-25T15:36:34;11.90;99.90
30893;DHT22;17595;50.884;4.346;2023-04-25T15:39:00;11.90;99.90
30893;DHT22;17595;50.884;4.346;2023-04-25T15:41:26;12.00;99.90